createdAt,value
2019-03-30T00:01:12.660Z,274.84
2019-03-30T00:02:41.378Z,274.9
2019-03-30T00:04:10.178Z,274.77
2019-03-30T00:05:38.903Z,274.71
2019-03-30T00:07:08.420Z,274.71
2019-03-30T00:08:37.217Z,274.71
2019-03-30T00:10:06.096Z,274.65
2019-03-30T00:11:35.780Z,274.65
2019-03-30T00:13:04.514Z,274.59
2019-03-30T00:14:33.216Z,274.59
2019-03-30T00:16:02.818Z,274.59
2019-03-30T00:17:31.539Z,274.59
2019-03-30T00:19:00.496Z,274.59
2019-03-30T00:20:30.097Z,274.59
2019-03-30T00:21:59.776Z,274.65
2019-03-30T00:23:28.739Z,274.52
2019-03-30T00:26:26.821Z,274.46
2019-03-30T00:27:55.539Z,274.4
2019-03-30T00:29:24.263Z,274.4
2019-03-30T00:30:53.058Z,274.34
2019-03-30T00:32:22.018Z,274.34
2019-03-30T00:33:51.378Z,274.27
2019-03-30T00:35:20.108Z,274.27
2019-03-30T00:36:49.540Z,274.27
2019-03-30T00:38:18.338Z,274.27
2019-03-30T00:39:47.165Z,274.34
2019-03-30T00:41:15.861Z,274.4
2019-03-30T00:42:45.058Z,274.4
2019-03-30T00:44:14.501Z,274.4
2019-03-30T00:45:43.217Z,274.34
2019-03-30T00:47:11.935Z,274.34
2019-03-30T00:48:41.855Z,274.34
2019-03-30T00:50:10.581Z,274.34
2019-03-30T00:51:39.304Z,274.27
2019-03-30T00:53:08.181Z,274.21
2019-03-30T00:54:36.902Z,274.21
2019-03-30T00:56:05.698Z,274.21
2019-03-30T00:57:34.579Z,274.15
2019-03-30T00:59:03.298Z,274.09
2019-03-30T01:00:32.097Z,274.09
2019-03-30T01:02:02.257Z,274.09
2019-03-30T01:03:31.860Z,274.15
2019-03-30T01:05:00.576Z,274.15
2019-03-30T01:06:29.535Z,274.15
2019-03-30T01:07:59.135Z,274.15
2019-03-30T01:09:27.857Z,274.15
2019-03-30T01:10:56.579Z,274.09
2019-03-30T01:12:25.297Z,274.09
2019-03-30T01:13:54.015Z,273.96
2019-03-30T01:15:22.976Z,274.02
2019-03-30T01:16:52.577Z,273.96
2019-03-30T01:18:21.296Z,273.96
2019-03-30T01:20:02.149Z,273.9
2019-03-30T01:21:31.698Z,274.02
2019-03-30T01:23:01.382Z,274.02
2019-03-30T01:24:31.137Z,274.02
2019-03-30T01:25:59.940Z,273.96
2019-03-30T01:27:28.657Z,273.96
2019-03-30T01:28:57.374Z,273.9
2019-03-30T01:30:26.977Z,273.84
2019-03-30T01:31:57.616Z,273.77
2019-03-30T01:33:27.215Z,273.77
2019-03-30T01:34:55.936Z,273.77
2019-03-30T01:36:25.605Z,273.84
2019-03-30T01:37:57.937Z,273.77
2019-03-30T01:39:26.657Z,273.77
2019-03-30T01:40:55.617Z,273.84
2019-03-30T01:42:24.419Z,273.84
2019-03-30T01:43:53.143Z,273.84
2019-03-30T01:45:22.897Z,273.84
2019-03-30T01:46:51.622Z,273.84
2019-03-30T01:48:21.060Z,273.9
2019-03-30T01:49:49.782Z,273.84
2019-03-30T01:51:18.815Z,273.77
2019-03-30T01:52:47.935Z,273.77
2019-03-30T01:54:16.735Z,273.84
2019-03-30T01:55:45.455Z,273.84
2019-03-30T01:57:14.176Z,273.77
2019-03-30T01:58:44.177Z,273.71
2019-03-30T02:00:12.901Z,273.65
2019-03-30T02:01:41.621Z,273.65
2019-03-30T02:03:10.420Z,273.71
2019-03-30T02:04:40.018Z,273.84
2019-03-30T02:06:08.740Z,273.84
2019-03-30T02:07:37.779Z,273.77
2019-03-30T02:09:07.375Z,273.9
2019-03-30T02:10:36.177Z,273.84
2019-03-30T02:12:04.898Z,273.77
2019-03-30T02:13:33.854Z,273.71
2019-03-30T02:15:02.587Z,273.65
2019-03-30T02:16:31.296Z,273.59
2019-03-30T02:18:00.016Z,273.59
2019-03-30T02:19:29.616Z,273.52
2019-03-30T02:20:59.059Z,273.52
2019-03-30T02:22:28.337Z,273.52
2019-03-30T02:23:57.056Z,273.52
2019-03-30T02:25:25.774Z,273.46
2019-03-30T02:26:55.055Z,273.4
2019-03-30T02:28:23.776Z,273.4
2019-03-30T02:29:52.496Z,273.34
2019-03-30T02:31:22.100Z,273.34
2019-03-30T02:32:50.899Z,273.34
2019-03-30T02:34:19.699Z,273.4
2019-03-30T02:35:48.499Z,273.34
2019-03-30T02:37:17.218Z,273.34
2019-03-30T02:38:46.016Z,273.34
2019-03-30T02:40:14.736Z,273.34
2019-03-30T02:41:43.457Z,273.4
2019-03-30T02:43:12.345Z,273.46
2019-03-30T02:44:41.057Z,273.46
2019-03-30T02:46:09.773Z,273.34
2019-03-30T02:47:38.576Z,273.27
2019-03-30T02:49:09.134Z,273.27
2019-03-30T02:50:48.928Z,273.27
2019-03-30T02:52:18.981Z,273.34
2019-03-30T02:53:47.695Z,273.34
2019-03-30T02:55:16.499Z,273.34
2019-03-30T02:56:45.222Z,273.27
2019-03-30T02:58:14.018Z,273.27
2019-03-30T02:59:42.743Z,273.27
2019-03-30T03:01:11.456Z,273.27
2019-03-30T03:02:40.262Z,273.21
2019-03-30T03:04:08.981Z,273.15
2019-03-30T03:05:38.181Z,273.15
2019-03-30T03:07:07.875Z,273.15
2019-03-30T03:08:36.661Z,273.09
2019-03-30T03:10:06.095Z,273.02
2019-03-30T03:11:35.305Z,273.02
2019-03-30T03:13:04.099Z,273.09
2019-03-30T03:14:32.979Z,273.09
2019-03-30T03:16:01.773Z,273.02
2019-03-30T03:17:30.738Z,273.02
2019-03-30T03:19:00.420Z,273.02
2019-03-30T03:20:29.135Z,273.02
2019-03-30T03:21:57.932Z,273.02
2019-03-30T03:23:26.657Z,273.02
2019-03-30T03:24:56.413Z,272.96
2019-03-30T03:26:25.213Z,272.96
2019-03-30T03:27:54.029Z,272.96
2019-03-30T03:29:22.812Z,272.9
2019-03-30T03:30:51.694Z,272.96
2019-03-30T03:32:21.376Z,272.9
2019-03-30T03:33:50.185Z,272.9
2019-03-30T03:35:19.053Z,272.9
2019-03-30T03:36:47.797Z,272.9
2019-03-30T03:38:16.500Z,272.9
2019-03-30T03:39:46.013Z,272.84
2019-03-30T03:41:14.739Z,272.84
2019-03-30T03:42:43.531Z,272.77
2019-03-30T03:44:12.413Z,272.77
2019-03-30T03:45:42.264Z,272.71
2019-03-30T03:47:11.054Z,272.65
2019-03-30T03:48:39.852Z,272.65
2019-03-30T03:50:09.620Z,272.65
2019-03-30T03:51:38.338Z,272.71
2019-03-30T03:53:07.058Z,272.71
2019-03-30T03:54:35.855Z,272.71
2019-03-30T03:56:04.739Z,272.71
2019-03-30T03:57:33.457Z,272.77
2019-03-30T03:59:03.218Z,272.71
2019-03-30T04:00:32.415Z,272.71
2019-03-30T04:02:01.219Z,272.71
2019-03-30T04:03:30.815Z,272.65
2019-03-30T04:04:59.615Z,272.65
2019-03-30T04:06:28.418Z,272.65
2019-03-30T04:07:57.214Z,272.65
2019-03-30T04:09:26.976Z,272.59
2019-03-30T04:10:55.774Z,272.59
2019-03-30T04:12:24.814Z,272.59
2019-03-30T04:13:53.629Z,272.59
2019-03-30T04:15:22.337Z,272.59
2019-03-30T04:16:51.066Z,272.52
2019-03-30T04:18:20.504Z,272.59
2019-03-30T04:19:49.821Z,272.52
2019-03-30T04:21:18.501Z,272.52
2019-03-30T04:22:47.617Z,272.52
2019-03-30T04:24:16.526Z,272.52
2019-03-30T04:25:46.180Z,272.52
2019-03-30T04:27:15.860Z,272.52
2019-03-30T04:28:46.737Z,272.46
2019-03-30T04:30:16.340Z,272.46
2019-03-30T04:31:45.138Z,272.4
2019-03-30T04:33:14.431Z,272.4
2019-03-30T04:34:43.223Z,272.46
2019-03-30T04:36:11.938Z,272.46
2019-03-30T04:37:41.216Z,272.4
2019-03-30T04:39:10.900Z,272.46
2019-03-30T04:40:39.627Z,272.46
2019-03-30T04:42:08.339Z,272.46
2019-03-30T04:43:37.297Z,272.4
2019-03-30T04:45:06.098Z,272.4
2019-03-30T04:46:34.916Z,272.4
2019-03-30T04:48:03.702Z,272.4
2019-03-30T04:49:33.145Z,272.4
2019-03-30T04:51:01.859Z,272.34
2019-03-30T04:52:30.658Z,272.34
2019-03-30T04:53:59.375Z,272.27
2019-03-30T04:55:28.502Z,272.34
2019-03-30T04:56:57.299Z,272.27
2019-03-30T04:58:26.024Z,272.34
2019-03-30T04:59:54.735Z,272.34
2019-03-30T05:01:25.539Z,272.34
2019-03-30T05:02:54.341Z,272.34
2019-03-30T05:04:23.060Z,272.27
2019-03-30T05:05:51.775Z,272.27
2019-03-30T05:07:20.496Z,272.27
2019-03-30T05:08:49.215Z,272.27
2019-03-30T05:10:17.935Z,272.21
2019-03-30T05:11:47.536Z,272.27
2019-03-30T05:13:16.257Z,272.34
2019-03-30T05:14:45.857Z,272.21
2019-03-30T05:16:14.582Z,272.27
2019-03-30T05:17:47.182Z,272.27
2019-03-30T05:19:16.496Z,272.34
2019-03-30T05:20:45.224Z,272.34
2019-03-30T05:22:16.556Z,272.34
2019-03-30T05:23:45.455Z,272.34
2019-03-30T05:25:14.174Z,272.34
2019-03-30T05:26:42.976Z,272.34
2019-03-30T05:28:12.819Z,272.34
2019-03-30T05:29:41.536Z,272.34
2019-03-30T05:31:10.335Z,272.34
2019-03-30T05:32:41.597Z,272.27
2019-03-30T05:34:10.496Z,272.34
2019-03-30T05:35:39.215Z,272.34
2019-03-30T05:37:07.936Z,272.4
2019-03-30T05:38:36.739Z,272.4
2019-03-30T05:40:06.495Z,272.46
2019-03-30T05:41:35.259Z,272.52
2019-03-30T05:43:03.933Z,272.52
2019-03-30T05:44:32.663Z,272.52
2019-03-30T05:46:01.374Z,272.59
2019-03-30T05:47:30.095Z,272.59
2019-03-30T05:48:59.695Z,272.65
2019-03-30T05:50:28.416Z,272.65
2019-03-30T05:51:58.014Z,272.71
2019-03-30T05:53:26.819Z,272.84
2019-03-30T05:54:55.535Z,272.9
2019-03-30T05:56:24.333Z,272.96
2019-03-30T05:57:53.134Z,273.02
2019-03-30T05:59:21.854Z,273.02
2019-03-30T06:00:50.576Z,273.02
2019-03-30T06:02:19.458Z,273.02
2019-03-30T06:03:48.173Z,273.02
2019-03-30T06:05:16.976Z,273.02
2019-03-30T06:06:45.696Z,273.15
2019-03-30T06:08:14.416Z,273.27
2019-03-30T06:09:43.138Z,273.34
2019-03-30T06:11:11.936Z,273.46
2019-03-30T06:12:40.897Z,273.52
2019-03-30T06:14:09.704Z,273.59
2019-03-30T06:15:38.496Z,273.59
2019-03-30T06:17:07.637Z,273.65
2019-03-30T06:18:36.340Z,273.71
2019-03-30T06:20:05.136Z,273.77
2019-03-30T06:21:35.695Z,273.84
2019-03-30T06:23:05.385Z,273.84
2019-03-30T06:24:34.736Z,273.84
2019-03-30T06:26:04.420Z,273.9
2019-03-30T06:27:33.137Z,274.09
2019-03-30T06:29:02.818Z,274.27
2019-03-30T06:30:31.615Z,274.4
2019-03-30T06:32:01.217Z,274.4
2019-03-30T06:33:29.939Z,274.59
2019-03-30T06:35:00.497Z,274.65
2019-03-30T06:36:30.098Z,274.77
2019-03-30T06:37:58.817Z,274.71
2019-03-30T06:39:27.537Z,274.71
2019-03-30T06:40:57.192Z,274.65
2019-03-30T06:42:25.943Z,274.71
2019-03-30T06:43:55.619Z,274.65
2019-03-30T06:45:24.341Z,274.84
2019-03-30T06:46:53.059Z,274.84
2019-03-30T06:48:21.786Z,274.96
2019-03-30T06:49:51.140Z,274.96
2019-03-30T06:51:19.881Z,275.15
2019-03-30T06:52:57.257Z,275.27
2019-03-30T06:54:26.738Z,275.52
2019-03-30T06:55:56.426Z,275.65
2019-03-30T06:57:25.138Z,275.71
2019-03-30T06:58:53.943Z,275.84
2019-03-30T07:00:22.979Z,275.9
2019-03-30T07:01:51.780Z,275.9
2019-03-30T07:03:20.504Z,275.96
2019-03-30T07:04:50.099Z,276.02
2019-03-30T07:06:18.820Z,276.15
2019-03-30T07:07:48.021Z,276.21
2019-03-30T07:09:16.739Z,276.21
2019-03-30T07:10:46.430Z,276.34
2019-03-30T07:12:15.218Z,276.34
2019-03-30T07:13:43.938Z,276.52
2019-03-30T07:15:12.657Z,276.52
2019-03-30T07:16:41.617Z,276.65
2019-03-30T07:18:10.655Z,276.71
2019-03-30T07:19:39.456Z,276.77
2019-03-30T07:21:09.147Z,276.84
2019-03-30T07:22:37.939Z,276.9
2019-03-30T07:24:07.136Z,277.02
2019-03-30T07:25:35.934Z,277.09
2019-03-30T07:27:04.814Z,277.15
2019-03-30T07:28:33.616Z,277.27
2019-03-30T07:30:03.141Z,277.34
2019-03-30T07:31:31.933Z,277.4
2019-03-30T07:33:01.298Z,277.46
2019-03-30T07:34:30.103Z,277.52
2019-03-30T07:35:58.815Z,277.59
2019-03-30T07:37:28.175Z,277.71
2019-03-30T07:38:56.897Z,277.84
2019-03-30T07:40:28.255Z,277.9
2019-03-30T07:41:58.494Z,278.02
2019-03-30T07:43:28.258Z,278.09
2019-03-30T07:44:57.933Z,278.21
2019-03-30T07:46:27.534Z,278.27
2019-03-30T07:47:56.253Z,278.4
2019-03-30T07:49:24.973Z,278.52
2019-03-30T07:50:53.775Z,278.59
2019-03-30T07:52:22.494Z,278.71
2019-03-30T07:53:51.215Z,278.77
2019-03-30T07:55:21.697Z,278.77
2019-03-30T07:57:04.109Z,278.84
2019-03-30T07:58:42.254Z,278.96
2019-03-30T08:00:10.973Z,279.02
2019-03-30T08:01:39.856Z,279.09
2019-03-30T08:03:08.576Z,279.15
2019-03-30T08:04:37.300Z,279.21
2019-03-30T08:06:06.177Z,279.27
2019-03-30T08:07:35.235Z,279.4
2019-03-30T08:09:04.258Z,279.46
2019-03-30T08:10:33.073Z,279.52
2019-03-30T08:12:02.814Z,279.59
2019-03-30T08:13:33.378Z,279.71
2019-03-30T08:15:03.137Z,279.77
2019-03-30T08:16:31.938Z,279.9
2019-03-30T08:18:00.656Z,280.02
2019-03-30T08:19:30.333Z,280.09
2019-03-30T08:20:59.068Z,280.15
2019-03-30T08:22:28.336Z,280.15
2019-03-30T08:23:57.138Z,280.27
2019-03-30T08:25:25.938Z,280.4
2019-03-30T08:26:55.057Z,280.46
2019-03-30T08:28:24.257Z,280.46
2019-03-30T08:29:52.982Z,280.59
2019-03-30T08:31:23.055Z,280.65
2019-03-30T08:32:51.778Z,280.77
2019-03-30T08:34:21.053Z,280.9
2019-03-30T08:35:50.737Z,280.96
2019-03-30T08:37:19.698Z,281.02
2019-03-30T08:38:48.415Z,281.09
2019-03-30T08:40:17.467Z,281.09
2019-03-30T08:41:46.897Z,281.21
2019-03-30T08:43:15.614Z,281.4
2019-03-30T08:44:44.417Z,281.52
2019-03-30T08:46:13.546Z,281.71
2019-03-30T08:47:42.256Z,281.71
2019-03-30T08:49:10.989Z,281.71
2019-03-30T08:50:39.701Z,281.84
2019-03-30T08:52:08.416Z,281.9
2019-03-30T08:53:38.018Z,281.96
2019-03-30T08:55:18.979Z,282.09
2019-03-30T08:56:47.779Z,282.09
2019-03-30T08:58:17.380Z,282.21
2019-03-30T08:59:46.098Z,282.4
2019-03-30T09:01:15.377Z,282.59
2019-03-30T09:02:44.178Z,282.65
2019-03-30T09:04:12.907Z,282.71
2019-03-30T09:05:43.058Z,282.84
2019-03-30T09:07:12.658Z,283.02
2019-03-30T09:08:41.379Z,283.15
2019-03-30T09:10:10.098Z,283.21
2019-03-30T09:11:38.978Z,283.27
2019-03-30T09:13:08.581Z,283.27
2019-03-30T09:14:38.175Z,283.27
2019-03-30T09:16:06.897Z,283.34
2019-03-30T09:17:37.252Z,283.52
2019-03-30T09:19:06.095Z,283.71
2019-03-30T09:20:36.255Z,283.84
2019-03-30T09:22:04.980Z,283.96
2019-03-30T09:23:33.710Z,284.15
2019-03-30T09:25:04.097Z,284.34
2019-03-30T09:26:32.815Z,284.34
2019-03-30T09:28:02.298Z,284.4
2019-03-30T09:29:31.716Z,284.52
2019-03-30T09:31:00.656Z,284.52
2019-03-30T09:32:29.463Z,284.71
2019-03-30T09:33:58.177Z,284.77
2019-03-30T09:35:27.218Z,284.96
2019-03-30T09:36:56.896Z,285.02
2019-03-30T09:38:25.618Z,285.4
2019-03-30T09:39:55.218Z,285.9
2019-03-30T09:41:24.904Z,286.77
2019-03-30T09:42:53.625Z,287.02
2019-03-30T09:44:22.567Z,286.77
2019-03-30T09:45:51.298Z,287.15
2019-03-30T09:47:20.016Z,287.09
2019-03-30T09:48:49.627Z,287.02
2019-03-30T09:50:19.123Z,286.65
2019-03-30T09:51:49.706Z,287.09
2019-03-30T09:53:18.418Z,287.4
2019-03-30T09:54:47.137Z,287.59
2019-03-30T09:56:17.742Z,287.46
2019-03-30T09:57:47.137Z,287.52
2019-03-30T09:59:16.815Z,287.59
2019-03-30T10:00:47.378Z,287.65
2019-03-30T10:02:17.057Z,287.15
2019-03-30T10:03:45.859Z,286.9
2019-03-30T10:05:14.576Z,287.34
2019-03-30T10:06:43.297Z,287.34
2019-03-30T10:08:12.094Z,287.27
2019-03-30T10:09:40.816Z,287.09
2019-03-30T10:11:11.377Z,287.52
2019-03-30T10:12:41.057Z,287.4
2019-03-30T10:14:09.777Z,287.71
2019-03-30T10:15:39.376Z,287.84
2019-03-30T10:17:08.099Z,288.15
2019-03-30T10:18:36.816Z,288.15
2019-03-30T10:20:05.536Z,287.9
2019-03-30T10:21:34.305Z,287.59
2019-03-30T10:23:03.056Z,287.4
2019-03-30T10:24:37.714Z,287.71
2019-03-30T10:26:07.676Z,287.9
2019-03-30T10:27:36.655Z,287.65
2019-03-30T10:29:06.422Z,287.65
2019-03-30T10:30:35.219Z,288.4
2019-03-30T10:32:04.661Z,288.65
2019-03-30T10:33:33.380Z,288.59
2019-03-30T10:35:02.261Z,288.84
2019-03-30T10:36:30.978Z,288.71
2019-03-30T10:37:59.695Z,288.34
2019-03-30T10:39:28.418Z,288.52
2019-03-30T10:40:58.017Z,288.27
2019-03-30T10:42:27.697Z,288.34
2019-03-30T10:43:56.425Z,288.84
2019-03-30T10:45:25.301Z,288.77
2019-03-30T10:46:54.100Z,288.84
2019-03-30T10:48:22.817Z,289.02
2019-03-30T10:49:52.018Z,289.09
2019-03-30T10:51:21.697Z,288.9
2019-03-30T10:52:52.261Z,288.65
2019-03-30T10:54:20.979Z,289.02
2019-03-30T10:55:49.779Z,288.96
2019-03-30T10:57:18.494Z,288.96
2019-03-30T10:58:47.216Z,289.02
2019-03-30T11:00:16.016Z,289.02
2019-03-30T11:01:46.656Z,289.4
2019-03-30T11:03:16.865Z,289.46
2019-03-30T11:04:46.493Z,289.4
2019-03-30T11:06:15.223Z,289.84
2019-03-30T11:07:44.336Z,289.9
2019-03-30T11:09:14.254Z,289.96
2019-03-30T11:10:43.058Z,289.71
2019-03-30T11:12:12.256Z,289.96
2019-03-30T11:13:40.977Z,290.15
2019-03-30T11:15:09.699Z,290.4
2019-03-30T11:16:40.176Z,290.4
2019-03-30T11:18:08.896Z,290.52
2019-03-30T11:19:37.622Z,290.46
2019-03-30T11:21:07.637Z,290.52
2019-03-30T11:22:36.339Z,290.77
2019-03-30T11:24:06.615Z,291.02
2019-03-30T11:25:36.415Z,290.71
2019-03-30T11:27:05.136Z,290.96
2019-03-30T11:28:33.859Z,291.4
2019-03-30T11:30:02.579Z,291.46
2019-03-30T11:31:31.294Z,291.34
2019-03-30T11:33:01.219Z,291.02
2019-03-30T11:34:30.896Z,290.84
2019-03-30T11:35:59.622Z,290.84
2019-03-30T11:37:28.655Z,291.09
2019-03-30T11:38:57.379Z,291.09
2019-03-30T11:40:26.096Z,290.84
2019-03-30T11:41:55.698Z,291.02
2019-03-30T11:43:24.419Z,290.96
2019-03-30T11:44:53.855Z,291.09
2019-03-30T11:46:22.658Z,291.21
2019-03-30T11:47:52.262Z,290.9
2019-03-30T11:49:21.220Z,290.59
2019-03-30T11:50:49.941Z,290.4
2019-03-30T11:52:18.977Z,290.34
2019-03-30T11:53:48.337Z,290.52
2019-03-30T11:55:21.929Z,290.65
2019-03-30T11:56:50.981Z,290.84
2019-03-30T11:58:20.418Z,290.84
2019-03-30T11:59:49.144Z,290.9
2019-03-30T12:01:21.633Z,291.02
2019-03-30T12:02:50.738Z,291.4
2019-03-30T12:04:20.336Z,291.15
2019-03-30T12:05:49.060Z,290.9
2019-03-30T12:07:17.859Z,290.46
2019-03-30T12:08:46.579Z,290.4
2019-03-30T12:10:15.377Z,290.27
2019-03-30T12:11:44.177Z,290.09
2019-03-30T12:13:12.903Z,290.02
2019-03-30T12:14:41.620Z,290.34
2019-03-30T12:16:11.298Z,290.65
2019-03-30T12:17:41.146Z,290.77
2019-03-30T12:19:10.899Z,290.96
2019-03-30T12:20:39.621Z,291.02
2019-03-30T12:22:08.419Z,290.96
2019-03-30T12:23:37.863Z,291.21
2019-03-30T12:25:06.737Z,291.15
2019-03-30T12:26:35.537Z,291.27
2019-03-30T12:28:04.259Z,291.21
2019-03-30T12:29:33.060Z,291.34
2019-03-30T12:31:03.785Z,291.46
2019-03-30T12:32:32.579Z,291.34
2019-03-30T12:34:01.863Z,291.46
2019-03-30T12:35:30.578Z,291.59
2019-03-30T12:36:59.299Z,291.84
2019-03-30T12:38:28.500Z,291.71
2019-03-30T12:39:58.298Z,291.59
2019-03-30T12:41:27.223Z,291.4
2019-03-30T12:42:56.015Z,291.4
2019-03-30T12:44:24.773Z,291.4
2019-03-30T12:45:53.463Z,291.4
2019-03-30T12:47:23.057Z,291.46
2019-03-30T12:48:51.775Z,291.52
2019-03-30T12:50:20.575Z,291.59
2019-03-30T12:51:50.255Z,291.46
2019-03-30T12:53:19.139Z,291.46
2019-03-30T12:54:48.815Z,290.96
2019-03-30T12:56:17.616Z,290.71
2019-03-30T12:57:46.817Z,290.59
2019-03-30T12:59:16.015Z,290.96
2019-03-30T13:00:45.456Z,291.21
2019-03-30T13:02:14.182Z,291.4
2019-03-30T13:03:42.912Z,291.4
2019-03-30T13:05:11.775Z,291.4
2019-03-30T13:06:42.495Z,291.34
2019-03-30T13:08:13.295Z,291.15
2019-03-30T13:09:42.979Z,291.09
2019-03-30T13:11:13.455Z,291.09
2019-03-30T13:12:42.735Z,291.21
2019-03-30T13:14:11.454Z,291.34
2019-03-30T13:15:41.137Z,291.46
2019-03-30T13:17:09.859Z,291.34
2019-03-30T13:18:39.138Z,291.46
2019-03-30T13:20:07.855Z,291.65
2019-03-30T13:21:36.575Z,291.71
2019-03-30T13:23:17.216Z,291.59
2019-03-30T13:24:46.095Z,291.65
2019-03-30T13:26:14.976Z,291.59
2019-03-30T13:27:43.695Z,291.46
2019-03-30T13:29:12.414Z,291.65
2019-03-30T13:30:41.134Z,291.65
2019-03-30T13:32:10.015Z,291.84
2019-03-30T13:33:38.815Z,291.77
2019-03-30T13:35:07.616Z,291.65
2019-03-30T13:36:36.343Z,291.71
2019-03-30T13:38:05.376Z,291.77
2019-03-30T13:39:35.215Z,291.77
2019-03-30T13:41:04.096Z,291.65
2019-03-30T13:42:33.295Z,291.52
2019-03-30T13:44:02.738Z,291.59
2019-03-30T13:45:32.416Z,291.77
2019-03-30T13:47:02.016Z,291.9
2019-03-30T13:48:30.815Z,291.84
2019-03-30T13:49:59.614Z,291.77
2019-03-30T13:51:28.341Z,291.9
2019-03-30T13:52:57.218Z,291.84
2019-03-30T13:54:26.019Z,291.71
2019-03-30T13:55:54.817Z,291.71
2019-03-30T13:57:23.613Z,291.96
2019-03-30T13:58:52.495Z,292.02
2019-03-30T14:00:22.259Z,291.96
2019-03-30T14:01:50.978Z,291.96
2019-03-30T14:03:19.696Z,292.09
2019-03-30T14:04:48.494Z,292.02
2019-03-30T14:06:17.216Z,292.09
2019-03-30T14:07:46.098Z,291.9
2019-03-30T14:09:15.702Z,291.84
2019-03-30T14:10:45.936Z,291.84
2019-03-30T14:12:14.738Z,291.77
2019-03-30T14:13:43.615Z,291.71
2019-03-30T14:15:12.420Z,291.9
2019-03-30T14:16:42.105Z,291.96
2019-03-30T14:18:10.821Z,292.02
2019-03-30T14:19:39.697Z,291.96
2019-03-30T14:21:09.216Z,292.09
2019-03-30T14:22:37.939Z,292.02
2019-03-30T14:24:06.837Z,292.02
2019-03-30T14:25:35.696Z,292.21
2019-03-30T14:27:05.295Z,292.21
2019-03-30T14:28:34.023Z,292.02
2019-03-30T14:30:02.825Z,291.9
2019-03-30T14:31:31.543Z,291.96
2019-03-30T14:33:00.263Z,291.96
2019-03-30T14:34:29.138Z,292.02
2019-03-30T14:35:58.583Z,292.09
2019-03-30T14:37:27.459Z,292.09
2019-03-30T14:38:56.335Z,292.15
2019-03-30T14:40:25.060Z,291.96
2019-03-30T14:41:53.861Z,291.77
2019-03-30T14:43:23.462Z,291.71
2019-03-30T14:44:52.180Z,291.77
2019-03-30T14:46:20.899Z,291.77
2019-03-30T14:47:49.616Z,291.71
2019-03-30T14:49:22.097Z,291.46
2019-03-30T14:50:50.902Z,291.46
2019-03-30T14:52:19.699Z,291.59
2019-03-30T14:53:48.421Z,291.71
2019-03-30T14:55:17.374Z,291.52
2019-03-30T14:56:48.742Z,291.34
2019-03-30T14:58:17.532Z,291.15
2019-03-30T14:59:46.418Z,291.27
2019-03-30T15:01:15.296Z,291.46
2019-03-30T15:02:44.054Z,291.4
2019-03-30T15:04:12.897Z,291.52
2019-03-30T15:05:42.498Z,291.52
2019-03-30T15:07:11.294Z,291.52
2019-03-30T15:08:40.895Z,291.59
2019-03-30T15:10:09.698Z,291.65
2019-03-30T15:11:38.421Z,291.84
2019-03-30T15:13:07.139Z,291.96
2019-03-30T15:14:35.938Z,292.09
2019-03-30T15:16:05.458Z,292.15
2019-03-30T15:17:34.256Z,292.02
2019-03-30T15:19:05.461Z,291.77
2019-03-30T15:20:36.177Z,291.65
2019-03-30T15:22:05.299Z,291.52
2019-03-30T15:23:34.898Z,291.46
2019-03-30T15:25:04.345Z,291.52
2019-03-30T15:26:33.057Z,291.46
2019-03-30T15:28:02.661Z,291.4
2019-03-30T15:29:32.105Z,291.46
2019-03-30T15:31:00.897Z,291.46
2019-03-30T15:32:29.703Z,291.52
2019-03-30T15:33:58.420Z,291.46
2019-03-30T15:35:27.220Z,291.21
2019-03-30T15:36:55.935Z,291.09
2019-03-30T15:38:25.539Z,291.15
2019-03-30T15:39:54.338Z,291.27
2019-03-30T15:41:23.147Z,291.15
2019-03-30T15:42:51.937Z,291.02
2019-03-30T15:44:20.658Z,291.09
2019-03-30T15:45:49.379Z,291.21
2019-03-30T15:47:18.420Z,291.09
2019-03-30T15:48:47.938Z,290.9
2019-03-30T15:50:16.895Z,290.77
2019-03-30T15:51:45.618Z,290.9
2019-03-30T15:53:14.434Z,290.96
2019-03-30T15:54:43.146Z,291.02
2019-03-30T15:56:11.939Z,291.09
2019-03-30T15:57:40.660Z,291.02
2019-03-30T15:59:09.538Z,291.09
2019-03-30T16:00:41.143Z,291.02
2019-03-30T16:02:10.821Z,290.96
2019-03-30T16:03:39.537Z,291.02
2019-03-30T16:05:08.418Z,290.96
2019-03-30T16:06:41.055Z,290.9
2019-03-30T16:08:09.776Z,290.9
2019-03-30T16:09:39.379Z,290.96
2019-03-30T16:11:08.976Z,290.84
2019-03-30T16:12:38.656Z,290.77
2019-03-30T16:14:07.383Z,290.77
2019-03-30T16:15:36.097Z,290.77
2019-03-30T16:17:08.576Z,290.65
2019-03-30T16:18:38.977Z,290.59
2019-03-30T16:20:11.062Z,290.52
2019-03-30T16:21:40.257Z,290.46
2019-03-30T16:23:08.979Z,290.46
2019-03-30T16:24:38.580Z,290.46
2019-03-30T16:26:08.254Z,290.46
2019-03-30T16:27:39.118Z,290.34
2019-03-30T16:29:08.499Z,290.27
2019-03-30T16:30:37.217Z,290.27
2019-03-30T16:32:06.017Z,290.21
2019-03-30T16:33:34.739Z,290.15
2019-03-30T16:35:03.458Z,290.09
2019-03-30T16:36:33.219Z,290.09
2019-03-30T16:38:01.942Z,290.09
2019-03-30T16:39:30.665Z,290.02
2019-03-30T16:40:59.377Z,290.02
2019-03-30T16:42:28.102Z,289.96
2019-03-30T16:43:57.457Z,289.9
2019-03-30T16:45:26.334Z,289.9
2019-03-30T16:46:57.500Z,289.77
2019-03-30T16:48:26.337Z,289.71
2019-03-30T16:49:55.938Z,289.65
2019-03-30T16:51:24.736Z,289.59
2019-03-30T16:52:53.533Z,289.59
2019-03-30T16:54:22.256Z,289.4
2019-03-30T16:55:51.860Z,289.46
2019-03-30T16:57:22.335Z,289.46
2019-03-30T16:58:52.014Z,289.34
2019-03-30T17:00:21.616Z,289.27
2019-03-30T17:01:50.335Z,289.09
2019-03-30T17:03:19.058Z,289.15
2019-03-30T17:04:47.776Z,288.96
2019-03-30T17:06:16.815Z,288.9
2019-03-30T17:07:45.787Z,288.84
2019-03-30T17:09:15.535Z,288.84
2019-03-30T17:10:44.417Z,288.65
2019-03-30T17:12:13.219Z,288.59
2019-03-30T17:13:42.979Z,288.52
2019-03-30T17:15:12.740Z,288.4
2019-03-30T17:16:41.455Z,288.34
2019-03-30T17:18:10.178Z,288.15
2019-03-30T17:19:39.738Z,288.02
2019-03-30T17:21:08.977Z,287.84
2019-03-30T17:22:37.780Z,287.77
2019-03-30T17:24:06.500Z,287.71
2019-03-30T17:25:35.216Z,287.71
2019-03-30T17:27:04.095Z,287.52
2019-03-30T17:28:32.977Z,287.4
2019-03-30T17:30:02.757Z,287.34
2019-03-30T17:31:31.616Z,287.15
2019-03-30T17:33:00.340Z,287.15
2019-03-30T17:34:29.215Z,287.15
2019-03-30T17:35:57.994Z,287.15
2019-03-30T17:37:26.737Z,287.09
2019-03-30T17:38:55.455Z,287.09
2019-03-30T17:40:24.415Z,287.15
2019-03-30T17:41:53.216Z,287.21
2019-03-30T17:43:22.100Z,287.21
2019-03-30T17:44:51.780Z,287.21
2019-03-30T17:46:20.575Z,287.09
2019-03-30T17:47:49.375Z,286.9
2019-03-30T17:49:19.054Z,286.9
2019-03-30T17:50:47.861Z,286.77
2019-03-30T17:52:16.655Z,286.71
2019-03-30T17:53:45.382Z,286.52
2019-03-30T17:55:14.415Z,286.34
2019-03-30T17:56:58.095Z,285.9
2019-03-30T17:58:27.696Z,285.9
2019-03-30T17:59:56.495Z,285.77
2019-03-30T18:01:25.219Z,285.84
2019-03-30T18:02:54.817Z,285.77
2019-03-30T18:04:23.535Z,285.59
2019-03-30T18:05:53.775Z,285.46
2019-03-30T18:07:22.577Z,285.52
2019-03-30T18:08:52.173Z,285.46
2019-03-30T18:10:20.895Z,285.34
2019-03-30T18:11:49.697Z,285.21
2019-03-30T18:13:18.416Z,285.02
2019-03-30T18:14:47.138Z,285.15
2019-03-30T18:16:15.937Z,284.96
2019-03-30T18:17:46.575Z,284.77
2019-03-30T18:19:16.335Z,284.65
2019-03-30T18:20:45.059Z,284.71
2019-03-30T18:22:13.854Z,284.77
2019-03-30T18:23:47.242Z,284.84
2019-03-30T18:25:16.341Z,284.77
2019-03-30T18:26:46.017Z,284.65
2019-03-30T18:28:26.393Z,284.52
2019-03-30T18:29:55.935Z,284.59
2019-03-30T18:31:25.695Z,284.65
2019-03-30T18:32:54.735Z,284.71
2019-03-30T18:34:23.456Z,284.65
2019-03-30T18:35:52.256Z,284.46
2019-03-30T18:37:20.975Z,284.21
2019-03-30T18:38:49.698Z,284.09
2019-03-30T18:40:34.097Z,284.15